createdAt,value
2017-07-16T00:02:20.131Z,10.65
2017-07-16T00:04:46.804Z,11.50
2017-07-16T00:07:13.475Z,12.80
2017-07-16T00:09:40.139Z,15.68
2017-07-16T00:12:06.796Z,9.30
2017-07-16T00:14:33.455Z,10.18
2017-07-16T00:17:00.111Z,8.93
2017-07-16T00:19:26.772Z,7.93
2017-07-16T00:21:53.443Z,10.50
2017-07-16T00:24:20.105Z,8.38
2017-07-16T00:26:46.884Z,8.82
2017-07-16T00:29:13.540Z,8.52
2017-07-16T00:31:40.227Z,8.68
2017-07-16T00:34:06.892Z,9.82
2017-07-16T00:36:33.585Z,8.40
2017-07-16T00:39:00.247Z,10.98
2017-07-16T00:41:26.932Z,8.00
2017-07-16T00:43:53.598Z,7.80
2017-07-16T00:46:20.280Z,7.95
2017-07-16T00:48:46.940Z,8.77
2017-07-16T00:51:13.647Z,7.93
2017-07-16T00:53:40.312Z,8.18
2017-07-16T00:56:06.972Z,7.90
2017-07-16T00:58:33.632Z,7.97
2017-07-16T01:01:00.295Z,10.63
2017-07-16T01:03:26.960Z,8.40
2017-07-16T01:05:53.616Z,8.40
2017-07-16T01:08:20.276Z,6.93
2017-07-16T01:10:46.932Z,8.18
2017-07-16T01:13:13.599Z,7.47
2017-07-16T01:15:40.262Z,5.75
2017-07-16T01:18:06.922Z,5.10
2017-07-16T01:20:33.584Z,8.68
2017-07-16T01:23:00.240Z,5.82
2017-07-16T01:25:26.896Z,6.93
2017-07-16T01:27:53.555Z,6.03
2017-07-16T01:30:20.228Z,5.37
2017-07-16T01:32:46.896Z,5.87
2017-07-16T01:35:13.564Z,5.53
2017-07-16T01:37:40.228Z,5.78
2017-07-16T01:40:06.883Z,4.75
2017-07-16T01:42:33.543Z,5.68
2017-07-16T01:45:00.205Z,5.75
2017-07-16T01:47:26.872Z,8.45
2017-07-16T01:49:53.544Z,5.00
2017-07-16T01:52:20.229Z,6.95
2017-07-16T01:54:46.888Z,5.80
2017-07-16T01:57:13.572Z,5.70
2017-07-16T01:59:40.231Z,4.32
2017-07-16T02:02:06.922Z,5.28
2017-07-16T02:04:33.588Z,5.35
2017-07-16T02:07:00.247Z,5.55
2017-07-16T02:09:26.908Z,4.87
2017-07-16T02:11:53.567Z,4.75
2017-07-16T02:14:20.232Z,5.20
2017-07-16T02:16:46.891Z,4.47
2017-07-16T02:19:13.554Z,3.90
2017-07-16T02:21:40.216Z,4.70
2017-07-16T02:24:06.879Z,4.78
2017-07-16T02:26:33.539Z,4.53
2017-07-16T02:29:00.201Z,5.07
2017-07-16T02:31:26.859Z,5.03
2017-07-16T02:33:53.517Z,4.62
2017-07-16T02:36:20.184Z,4.37
2017-07-16T02:38:46.931Z,4.90
2017-07-16T02:41:13.597Z,5.05
2017-07-16T02:43:40.259Z,6.50
2017-07-16T02:46:06.929Z,4.82
2017-07-16T02:48:33.591Z,4.93
2017-07-16T02:51:00.252Z,4.50
2017-07-16T02:53:26.912Z,5.15
2017-07-16T02:55:53.575Z,4.90
2017-07-16T02:58:20.268Z,6.10
2017-07-16T03:00:46.935Z,4.85
2017-07-16T03:03:13.624Z,5.12
2017-07-16T03:05:40.283Z,4.72
2017-07-16T03:08:06.968Z,4.65
2017-07-16T03:10:33.631Z,3.75
2017-07-16T03:13:00.320Z,5.10
2017-07-16T03:15:26.984Z,6.80
2017-07-16T03:17:53.668Z,5.47
2017-07-16T03:20:20.327Z,4.78
2017-07-16T03:22:46.991Z,5.80
2017-07-16T03:25:19.390Z,5.22
2017-07-16T03:27:46.052Z,7.03
2017-07-16T03:30:12.712Z,5.37
2017-07-16T03:32:39.369Z,6.50
2017-07-16T03:35:06.054Z,6.07
2017-07-16T03:37:32.712Z,4.90
2017-07-16T03:39:59.401Z,7.85
2017-07-16T03:42:26.063Z,5.65
2017-07-16T03:44:52.752Z,4.97
2017-07-16T03:47:19.409Z,5.35
2017-07-16T03:49:46.109Z,4.95
2017-07-16T03:52:12.767Z,5.80
2017-07-16T03:54:39.456Z,7.47
2017-07-16T03:57:06.112Z,5.18
2017-07-16T03:59:32.801Z,5.68
2017-07-16T04:01:59.462Z,6.28
2017-07-16T04:04:26.160Z,5.22
2017-07-16T04:06:52.820Z,5.10
2017-07-16T04:09:19.503Z,4.70
2017-07-16T04:11:46.167Z,5.53
2017-07-16T04:14:12.853Z,4.90
2017-07-16T04:16:39.518Z,5.60
2017-07-16T04:19:06.209Z,6.15
2017-07-16T04:21:32.885Z,5.12
2017-07-16T04:23:59.568Z,5.45
2017-07-16T04:26:26.229Z,5.40
2017-07-16T04:28:52.916Z,7.40
2017-07-16T04:31:19.576Z,4.62
2017-07-16T04:33:46.260Z,6.35
2017-07-16T04:36:12.920Z,5.40
2017-07-16T04:38:39.576Z,5.50
2017-07-16T04:41:06.236Z,6.20
2017-07-16T04:43:32.908Z,5.22
2017-07-16T04:45:59.572Z,5.03
2017-07-16T04:48:26.236Z,5.10
2017-07-16T04:50:52.896Z,7.47
2017-07-16T04:53:19.556Z,5.62
2017-07-16T04:55:46.220Z,6.60
2017-07-16T04:58:12.884Z,4.90
2017-07-16T05:00:39.552Z,5.20
2017-07-16T05:03:06.224Z,5.15
2017-07-16T05:05:32.908Z,4.90
2017-07-16T05:07:59.569Z,5.53
2017-07-16T05:10:26.252Z,5.82
2017-07-16T05:12:52.913Z,5.93
2017-07-16T05:15:19.608Z,6.07
2017-07-16T05:17:46.268Z,4.80
2017-07-16T05:20:12.952Z,5.30
2017-07-16T05:22:39.631Z,5.72
2017-07-16T05:25:06.317Z,5.80
2017-07-16T05:27:32.981Z,5.80
2017-07-16T05:29:59.672Z,5.07
2017-07-16T05:32:26.329Z,5.60
2017-07-16T05:34:53.012Z,6.75
2017-07-16T05:37:19.674Z,4.90
2017-07-16T05:39:46.362Z,5.07
2017-07-16T05:42:13.331Z,5.32
2017-07-16T05:44:40.028Z,10.52
2017-07-16T05:47:06.689Z,5.35
2017-07-16T05:49:33.347Z,5.15
2017-07-16T05:52:00.015Z,5.30
2017-07-16T05:54:26.676Z,5.35
2017-07-16T05:56:53.350Z,5.10
2017-07-16T05:59:20.013Z,5.93
2017-07-16T06:01:46.680Z,5.57
2017-07-16T06:04:13.351Z,5.60
2017-07-16T06:06:40.012Z,4.75
2017-07-16T06:09:06.672Z,4.95
2017-07-16T06:11:33.343Z,5.65
2017-07-16T06:14:00.000Z,5.85
2017-07-16T06:16:26.671Z,6.78
2017-07-16T06:18:53.332Z,5.10
2017-07-16T06:21:20.275Z,5.50
2017-07-16T06:23:46.951Z,6.10
2017-07-16T06:26:13.616Z,5.40
2017-07-16T06:28:40.284Z,5.35
2017-07-16T06:31:06.960Z,6.45
2017-07-16T06:33:33.623Z,6.25
2017-07-16T06:36:00.311Z,5.50
2017-07-16T06:38:26.976Z,6.55
2017-07-16T06:40:53.679Z,5.22
2017-07-16T06:43:20.350Z,5.53
2017-07-16T06:45:47.051Z,6.25
2017-07-16T06:48:13.719Z,5.32
2017-07-16T06:50:40.404Z,5.60
2017-07-16T06:53:07.087Z,4.87
2017-07-16T06:55:33.759Z,6.33
2017-07-16T06:58:00.415Z,5.50
2017-07-16T07:00:27.072Z,5.20
2017-07-16T07:02:53.729Z,4.67
2017-07-16T07:05:20.396Z,5.93
2017-07-16T07:07:47.067Z,5.47
2017-07-16T07:10:13.740Z,5.03
2017-07-16T07:12:40.399Z,5.70
2017-07-16T07:15:07.059Z,5.63
2017-07-16T07:17:33.719Z,5.27
2017-07-16T07:20:00.384Z,4.87
2017-07-16T07:22:27.046Z,6.43
2017-07-16T07:24:53.710Z,5.07
2017-07-16T07:27:20.369Z,5.30
2017-07-16T07:29:47.036Z,5.43
2017-07-16T07:32:13.700Z,5.30
2017-07-16T07:34:40.364Z,4.83
2017-07-16T07:37:07.025Z,6.80
2017-07-16T07:39:33.712Z,5.40
2017-07-16T07:42:00.367Z,6.10
2017-07-16T07:44:27.055Z,6.47
2017-07-16T07:46:53.720Z,7.97
2017-07-16T07:49:20.387Z,7.40
2017-07-16T07:51:47.058Z,6.60
2017-07-16T07:54:13.724Z,6.63
2017-07-16T07:56:40.386Z,8.30
2017-07-16T07:59:07.049Z,6.20
2017-07-16T08:01:33.736Z,6.37
2017-07-16T08:04:00.396Z,7.00
2017-07-16T08:06:27.080Z,6.40
2017-07-16T08:08:53.744Z,6.60
2017-07-16T08:11:20.400Z,6.87
2017-07-16T08:13:47.064Z,6.00
2017-07-16T08:16:13.723Z,5.90
2017-07-16T08:18:40.385Z,7.27
2017-07-16T08:21:07.064Z,6.43
2017-07-16T08:23:33.729Z,6.20
2017-07-16T08:26:00.392Z,6.67
2017-07-16T08:28:27.056Z,7.10
2017-07-16T08:30:53.719Z,6.70
2017-07-16T08:33:20.388Z,7.37
2017-07-16T08:35:47.048Z,6.50
2017-07-16T08:38:13.715Z,6.60
2017-07-16T08:40:40.378Z,6.50
2017-07-16T08:43:07.036Z,7.07
2017-07-16T08:45:33.698Z,6.93
2017-07-16T08:48:00.362Z,6.50
2017-07-16T08:50:27.022Z,6.40
2017-07-16T08:52:53.713Z,6.57
2017-07-16T08:55:20.380Z,6.77
2017-07-16T08:57:47.063Z,6.83
2017-07-16T09:00:13.727Z,6.83
2017-07-16T09:02:40.411Z,6.90
2017-07-16T09:05:07.072Z,6.37
2017-07-16T09:07:33.760Z,7.33
2017-07-16T09:10:00.499Z,8.53
2017-07-16T09:12:27.196Z,6.97
2017-07-16T09:14:53.868Z,7.83
2017-07-16T09:17:20.557Z,8.20
2017-07-16T09:19:47.228Z,6.13
2017-07-16T09:22:13.886Z,6.40
2017-07-16T09:24:40.609Z,6.23
2017-07-16T09:27:07.270Z,6.47
2017-07-16T09:29:33.968Z,6.47
2017-07-16T09:32:00.639Z,6.80
2017-07-16T09:34:27.323Z,7.27
2017-07-16T09:36:53.992Z,7.33
2017-07-16T09:39:20.686Z,8.17
2017-07-16T09:41:47.348Z,7.87
2017-07-16T09:44:14.042Z,10.20
2017-07-16T09:46:40.707Z,7.33
2017-07-16T09:49:07.396Z,7.17
2017-07-16T09:51:34.060Z,7.30
2017-07-16T09:54:00.744Z,7.00
2017-07-16T09:56:27.412Z,7.73
2017-07-16T09:58:54.101Z,8.30
2017-07-16T10:01:20.765Z,8.93
2017-07-16T10:03:47.457Z,8.70
2017-07-16T10:06:14.119Z,9.90
2017-07-16T10:08:40.802Z,8.87
2017-07-16T10:11:07.492Z,9.17
2017-07-16T10:13:34.180Z,9.57
2017-07-16T10:16:00.865Z,10.13
2017-07-16T10:18:27.571Z,10.23
2017-07-16T10:20:54.236Z,10.60
2017-07-16T10:23:20.904Z,10.77
2017-07-16T10:25:47.570Z,9.53
2017-07-16T10:28:14.238Z,10.50
2017-07-16T10:30:40.921Z,11.13
2017-07-16T10:33:07.601Z,10.60
2017-07-16T10:35:34.263Z,11.00
2017-07-16T10:38:00.928Z,10.77
2017-07-16T10:40:27.589Z,9.30
2017-07-16T10:42:54.253Z,9.80
2017-07-16T10:45:20.942Z,9.43
2017-07-16T10:47:47.619Z,9.30
2017-07-16T10:50:14.316Z,10.23
2017-07-16T10:52:40.981Z,9.77
2017-07-16T10:55:07.672Z,10.07
2017-07-16T10:57:34.445Z,10.23
2017-07-16T11:00:01.142Z,11.17
2017-07-16T11:02:27.812Z,10.60
2017-07-16T11:04:54.580Z,13.30
2017-07-16T11:07:21.257Z,12.97
2017-07-16T11:09:47.952Z,12.10
2017-07-16T11:12:14.628Z,12.87
2017-07-16T11:14:41.328Z,12.10
2017-07-16T11:17:08.021Z,13.43
2017-07-16T11:19:34.726Z,14.00
2017-07-16T11:22:01.388Z,15.23
2017-07-16T11:24:28.091Z,15.17
2017-07-16T11:26:54.767Z,15.40
2017-07-16T11:29:21.470Z,16.73
2017-07-16T11:31:48.144Z,15.80
2017-07-16T11:34:14.812Z,15.03
2017-07-16T11:36:41.488Z,17.07
2017-07-16T11:39:08.155Z,15.07
2017-07-16T11:41:34.830Z,14.80
2017-07-16T11:44:01.516Z,14.40
2017-07-16T11:46:28.193Z,14.83
2017-07-16T11:48:54.873Z,13.93
2017-07-16T11:51:21.544Z,15.53
2017-07-16T11:53:48.218Z,14.40
2017-07-16T11:56:14.897Z,14.13
2017-07-16T11:58:41.572Z,12.67
2017-07-16T12:01:08.255Z,13.40
2017-07-16T12:03:34.925Z,12.20
2017-07-16T12:06:01.596Z,12.10
2017-07-16T12:08:28.278Z,14.53
2017-07-16T12:10:54.973Z,14.03
2017-07-16T12:13:21.651Z,14.10
2017-07-16T12:15:48.352Z,13.47
2017-07-16T12:18:15.072Z,14.10
2017-07-16T12:20:41.777Z,15.30
2017-07-16T12:23:08.451Z,13.50
2017-07-16T12:25:35.144Z,14.00
2017-07-16T12:28:01.818Z,13.60
2017-07-16T12:30:28.513Z,13.37
2017-07-16T12:32:55.197Z,13.60
2017-07-16T12:35:21.889Z,13.83
2017-07-16T12:37:48.581Z,12.07
2017-07-16T12:40:15.283Z,13.27
2017-07-16T12:42:41.957Z,13.70
2017-07-16T12:45:08.635Z,13.03
2017-07-16T12:47:35.312Z,12.00
2017-07-16T12:50:01.979Z,12.80
2017-07-16T12:52:28.653Z,13.23
2017-07-16T12:54:55.324Z,12.63
2017-07-16T12:57:21.991Z,11.87
2017-07-16T12:59:48.661Z,12.80
2017-07-16T13:02:15.328Z,12.63
2017-07-16T13:04:42.011Z,11.63
2017-07-16T13:07:08.698Z,12.83
2017-07-16T13:09:35.376Z,11.63
2017-07-16T13:12:02.040Z,11.07
2017-07-16T13:14:28.717Z,11.50
2017-07-16T13:16:55.392Z,12.10
2017-07-16T13:19:22.066Z,11.50
2017-07-16T13:21:48.768Z,12.43
2017-07-16T13:24:15.435Z,12.00
2017-07-16T13:26:42.139Z,11.47
2017-07-16T13:29:08.807Z,11.30
2017-07-16T13:34:08.640Z,11.20
2017-07-16T13:36:35.312Z,11.30
2017-07-16T13:39:01.979Z,11.20
2017-07-16T13:41:28.648Z,10.80
2017-07-16T13:43:55.312Z,11.23
2017-07-16T13:46:21.979Z,11.30
2017-07-16T13:48:48.658Z,11.10
2017-07-16T13:51:15.324Z,11.07
2017-07-16T13:53:41.984Z,10.60
2017-07-16T13:56:08.644Z,10.30
2017-07-16T13:58:35.308Z,10.63
2017-07-16T14:01:01.975Z,10.73
2017-07-16T14:03:28.669Z,11.63
2017-07-16T14:05:55.337Z,12.40
2017-07-16T14:08:22.041Z,11.43
2017-07-16T14:10:48.712Z,11.87
2017-07-16T14:13:15.380Z,11.70
2017-07-16T14:15:42.049Z,11.53
2017-07-16T14:18:08.721Z,11.37
2017-07-16T14:20:35.392Z,12.27
2017-07-16T14:23:02.060Z,12.27
2017-07-16T14:25:28.737Z,12.33
2017-07-16T14:27:55.408Z,13.77
2017-07-16T14:30:22.082Z,14.10
2017-07-16T14:32:48.752Z,12.77
2017-07-16T14:35:15.424Z,12.60
2017-07-16T14:37:42.156Z,12.07
2017-07-16T14:40:08.833Z,14.23
2017-07-16T14:42:35.500Z,12.73
2017-07-16T14:45:02.162Z,13.13
2017-07-16T14:47:28.832Z,13.27
2017-07-16T14:49:55.540Z,13.40
2017-07-16T14:52:22.208Z,13.40
2017-07-16T14:54:48.890Z,12.57
2017-07-16T14:57:15.561Z,13.20
2017-07-16T14:59:42.232Z,13.40
2017-07-16T15:02:08.904Z,12.40
2017-07-16T15:04:35.564Z,11.13
2017-07-16T15:07:02.235Z,12.00
2017-07-16T15:09:28.905Z,12.73
2017-07-16T15:11:55.577Z,12.17
2017-07-16T15:14:22.245Z,12.97
2017-07-16T15:16:48.908Z,12.80
2017-07-16T15:19:15.571Z,14.27
2017-07-16T15:21:42.244Z,13.00
2017-07-16T15:24:08.916Z,14.27
2017-07-16T15:26:35.576Z,15.20
2017-07-16T15:29:02.244Z,14.53
2017-07-16T15:31:28.912Z,15.50
2017-07-16T15:33:55.588Z,13.00
2017-07-16T15:36:22.261Z,15.93
2017-07-16T15:38:48.948Z,15.47
2017-07-16T15:41:15.612Z,15.33
2017-07-16T15:43:42.313Z,15.00
2017-07-16T15:46:08.992Z,15.10
2017-07-16T15:48:35.689Z,16.63
2017-07-16T15:51:02.367Z,16.00
2017-07-16T15:53:29.060Z,16.07
2017-07-16T15:55:55.728Z,15.40
2017-07-16T15:58:22.431Z,15.37
2017-07-16T16:00:49.101Z,16.00
2017-07-16T16:03:16.041Z,16.03
2017-07-16T16:05:42.713Z,15.73
2017-07-16T16:08:09.726Z,16.87
2017-07-16T16:10:36.399Z,17.53
2017-07-16T16:13:03.097Z,17.20
2017-07-16T16:15:29.771Z,16.80
2017-07-16T16:17:56.502Z,17.17
2017-07-16T16:20:23.180Z,17.53
2017-07-16T16:22:49.850Z,18.63
2017-07-16T16:25:16.519Z,19.30
2017-07-16T16:27:43.188Z,19.03
2017-07-16T16:30:09.881Z,21.23
2017-07-16T16:32:36.551Z,20.90
2017-07-16T16:35:03.251Z,21.80
2017-07-16T16:37:29.932Z,21.57
2017-07-16T16:39:56.629Z,24.17
2017-07-16T16:42:23.313Z,23.40
2017-07-16T16:44:50.016Z,22.73
2017-07-16T16:47:16.696Z,23.33
2017-07-16T16:49:43.393Z,21.87
2017-07-16T16:52:10.068Z,25.50
2017-07-16T16:54:36.764Z,26.20
2017-07-16T16:57:03.449Z,25.27
2017-07-16T16:59:30.272Z,25.53
2017-07-16T17:01:56.944Z,25.10
2017-07-16T17:04:23.609Z,27.63
2017-07-16T17:06:50.292Z,26.90
2017-07-16T17:09:16.965Z,27.30
2017-07-16T17:11:43.633Z,25.90
2017-07-16T17:14:10.334Z,27.60
2017-07-16T17:16:37.004Z,26.40
2017-07-16T17:19:03.673Z,26.10
2017-07-16T17:21:30.372Z,26.58
2017-07-16T17:23:57.049Z,27.57
2017-07-16T17:26:23.751Z,27.17
2017-07-16T17:28:50.425Z,27.73
2017-07-16T17:31:17.120Z,27.37
2017-07-16T17:33:43.792Z,29.47
2017-07-16T17:36:10.487Z,28.60
2017-07-16T17:38:37.158Z,26.73
2017-07-16T17:41:03.852Z,28.03
2017-07-16T17:43:30.644Z,29.48
2017-07-16T17:45:57.350Z,30.13
2017-07-16T17:48:24.055Z,29.77
2017-07-16T17:50:50.736Z,28.73
2017-07-16T17:53:17.408Z,29.20
2017-07-16T17:55:44.085Z,28.93
2017-07-16T17:58:10.756Z,28.00
2017-07-16T18:00:37.432Z,27.67
2017-07-16T18:05:37.328Z,30.23
2017-07-16T18:08:04.069Z,29.65
2017-07-16T18:10:30.743Z,29.23
2017-07-16T18:12:57.448Z,29.10
2017-07-16T18:15:24.124Z,30.23
2017-07-16T18:17:50.832Z,29.40
2017-07-16T18:20:17.523Z,30.92
2017-07-16T18:22:44.227Z,32.72
2017-07-16T18:25:10.908Z,26.00
2017-07-16T18:27:37.613Z,30.08
2017-07-16T18:30:04.304Z,29.77
2017-07-16T18:32:31.004Z,30.52
2017-07-16T18:34:57.689Z,29.70
2017-07-16T18:37:24.391Z,30.83
2017-07-16T18:39:51.062Z,31.10
2017-07-16T18:42:17.775Z,29.75
2017-07-16T18:44:44.464Z,28.55
2017-07-16T18:47:11.160Z,27.48
2017-07-16T18:49:37.840Z,29.55
2017-07-16T18:52:04.517Z,28.65
2017-07-16T18:54:31.191Z,27.80
2017-07-16T18:56:57.864Z,26.98
2017-07-16T18:59:24.542Z,27.87
2017-07-16T19:01:51.235Z,30.42
2017-07-16T19:04:17.909Z,29.40
2017-07-16T19:06:44.588Z,27.73
2017-07-16T19:09:11.268Z,27.67
2017-07-16T19:11:37.944Z,28.85
2017-07-16T19:14:04.621Z,27.98
2017-07-16T19:16:31.296Z,27.15
2017-07-16T19:18:57.977Z,28.45
2017-07-16T19:21:24.657Z,28.80
2017-07-16T19:23:51.336Z,31.05
2017-07-16T19:26:18.009Z,30.05
2017-07-16T19:28:44.712Z,31.70
2017-07-16T19:31:11.402Z,31.23
2017-07-16T19:33:38.100Z,32.85
2017-07-16T19:36:04.772Z,33.53
2017-07-16T19:38:31.471Z,33.63
2017-07-16T19:40:58.152Z,35.33
2017-07-16T19:43:24.858Z,37.00
2017-07-16T19:45:51.542Z,40.12
2017-07-16T19:48:18.252Z,41.97
2017-07-16T19:50:44.928Z,48.35
2017-07-16T19:53:11.628Z,48.10
2017-07-16T19:55:38.300Z,46.83
2017-07-16T19:58:04.973Z,59.63
2017-07-16T20:00:31.648Z,58.95
2017-07-16T20:02:58.316Z,58.72
2017-07-16T20:05:24.980Z,52.25
2017-07-16T20:07:51.657Z,47.83
2017-07-16T20:10:18.329Z,43.40
2017-07-16T20:12:45.000Z,46.35
2017-07-16T20:15:11.664Z,44.10
2017-07-16T20:17:38.332Z,40.70
2017-07-16T20:20:05.005Z,33.22
2017-07-16T20:22:31.684Z,39.63
2017-07-16T20:24:58.357Z,34.55
2017-07-16T20:27:25.032Z,39.17
2017-07-16T20:29:51.709Z,35.20
2017-07-16T20:32:18.389Z,30.45
2017-07-16T20:34:45.065Z,35.90
2017-07-16T20:37:11.732Z,32.03
2017-07-16T20:39:38.395Z,33.65
2017-07-16T20:42:05.067Z,31.48
2017-07-16T20:44:31.740Z,33.05
2017-07-16T20:46:58.416Z,36.15
2017-07-16T20:49:25.089Z,31.37
2017-07-16T20:51:51.767Z,28.55
2017-07-16T20:54:18.493Z,28.15
2017-07-16T20:56:45.160Z,29.12
2017-07-16T20:59:11.863Z,30.27
2017-07-16T21:01:38.536Z,29.90
2017-07-16T21:04:05.205Z,26.25
2017-07-16T21:06:31.876Z,23.67
2017-07-16T21:08:58.545Z,14.73
2017-07-16T21:11:25.220Z,16.62
2017-07-16T21:13:51.892Z,12.55
2017-07-16T21:16:18.564Z,12.20
2017-07-16T21:18:45.229Z,9.13
2017-07-16T21:21:11.892Z,9.10
2017-07-16T21:23:38.550Z,8.80
2017-07-16T21:26:05.216Z,8.90
2017-07-16T21:28:31.876Z,9.95
2017-07-16T21:30:58.532Z,9.27
2017-07-16T21:33:25.192Z,9.65
2017-07-16T21:35:51.863Z,9.70
2017-07-16T21:38:18.527Z,9.43
2017-07-16T21:40:45.195Z,9.40
2017-07-16T21:43:11.866Z,7.80
2017-07-16T21:45:38.524Z,8.18
2017-07-16T21:48:05.185Z,7.82
2017-07-16T21:50:31.848Z,9.52
2017-07-16T21:52:58.508Z,8.75
2017-07-16T21:55:25.172Z,9.15
2017-07-16T21:57:51.832Z,9.38
2017-07-16T22:00:18.491Z,9.55
2017-07-16T22:02:45.151Z,8.63
2017-07-16T22:05:11.839Z,9.13
2017-07-16T22:07:38.505Z,10.27
2017-07-16T22:10:05.196Z,8.52
2017-07-16T22:12:31.870Z,7.45
2017-07-16T22:14:58.539Z,8.57
2017-07-16T22:17:26.044Z,9.45
2017-07-16T22:19:52.712Z,10.82
2017-07-16T22:22:19.400Z,10.80
2017-07-16T22:24:46.074Z,10.90
2017-07-16T22:27:12.769Z,11.85
2017-07-16T22:29:39.435Z,10.60
2017-07-16T22:32:06.125Z,10.85
2017-07-16T22:34:32.816Z,13.90
2017-07-16T22:36:59.506Z,14.50
2017-07-16T22:39:26.172Z,11.60
2017-07-16T22:41:52.864Z,11.27
2017-07-16T22:44:19.524Z,9.63
2017-07-16T22:46:46.213Z,11.75
2017-07-16T22:49:12.876Z,13.13
2017-07-16T22:51:39.578Z,10.18
2017-07-16T22:54:06.328Z,10.65
2017-07-16T22:56:33.016Z,10.27
2017-07-16T22:58:59.685Z,10.20
2017-07-16T23:01:26.389Z,10.55
2017-07-16T23:03:53.066Z,12.05
2017-07-16T23:06:19.755Z,13.60
2017-07-16T23:08:46.420Z,11.93
2017-07-16T23:11:13.108Z,9.70
2017-07-16T23:13:39.772Z,14.80
2017-07-16T23:16:06.469Z,12.55
2017-07-16T23:18:33.132Z,15.18
2017-07-16T23:20:59.815Z,9.70
2017-07-16T23:23:26.480Z,11.90
2017-07-16T23:25:53.154Z,10.70
2017-07-16T23:28:19.821Z,11.70
2017-07-16T23:30:46.484Z,8.95
2017-07-16T23:33:13.152Z,11.02
2017-07-16T23:35:39.817Z,9.73
2017-07-16T23:38:06.483Z,9.82
2017-07-16T23:40:33.148Z,10.00
2017-07-16T23:42:59.816Z,12.63
2017-07-16T23:45:26.479Z,11.75
2017-07-16T23:47:53.173Z,10.23
2017-07-16T23:50:19.836Z,14.98
2017-07-16T23:52:46.533Z,12.48
2017-07-16T23:55:13.205Z,14.02
2017-07-16T23:57:39.900Z,13.38
